createdAt,value
2018-12-20T00:02:19.688Z,20.47
2018-12-20T00:04:48.986Z,22.47
2018-12-20T00:07:18.246Z,20.93
2018-12-20T00:09:47.389Z,22.93
2018-12-20T00:12:16.843Z,23.33
2018-12-20T00:14:45.953Z,25.53
2018-12-20T00:17:20.438Z,24.63
2018-12-20T00:19:49.735Z,22.93
2018-12-20T00:22:19.047Z,25.90
2018-12-20T00:24:47.859Z,24.50
2018-12-20T00:27:16.755Z,25.80
2018-12-20T00:29:45.838Z,25.10
2018-12-20T00:32:15.228Z,22.50
2018-12-20T00:34:44.263Z,23.60
2018-12-20T00:37:13.072Z,24.97
2018-12-20T00:39:42.028Z,25.87
2018-12-20T00:42:10.907Z,24.33
2018-12-20T00:44:40.149Z,24.77
2018-12-20T00:47:09.006Z,25.27
2018-12-20T00:49:38.260Z,25.03
2018-12-20T00:52:07.049Z,22.60
2018-12-20T00:54:35.797Z,23.83
2018-12-20T00:57:05.481Z,21.93
2018-12-20T00:59:34.725Z,24.30
2018-12-20T01:02:04.187Z,23.33
2018-12-20T01:04:33.698Z,23.63
2018-12-20T01:07:02.676Z,23.53
2018-12-20T01:09:31.832Z,24.00
2018-12-20T01:12:01.120Z,23.43
2018-12-20T01:14:30.270Z,24.77
2018-12-20T01:16:59.691Z,23.57
2018-12-20T01:19:28.587Z,23.47
2018-12-20T01:21:58.030Z,23.37
2018-12-20T01:24:26.834Z,20.23
2018-12-20T01:26:56.346Z,23.40
2018-12-20T01:29:25.665Z,22.77
2018-12-20T01:31:54.631Z,22.37
2018-12-20T01:34:23.848Z,23.33
2018-12-20T01:36:53.148Z,22.70
2018-12-20T01:39:22.294Z,21.87
2018-12-20T01:41:52.018Z,21.90
2018-12-20T01:44:21.056Z,20.47
2018-12-20T01:46:50.043Z,19.10
2018-12-20T01:49:19.046Z,20.20
2018-12-20T01:51:48.124Z,21.47
2018-12-20T01:54:17.235Z,20.33
2018-12-20T01:56:46.502Z,21.60
2018-12-20T01:59:15.627Z,20.57
2018-12-20T02:01:44.743Z,21.03
2018-12-20T02:04:13.483Z,19.30
2018-12-20T02:06:43.209Z,20.57
2018-12-20T02:09:12.281Z,20.00
2018-12-20T02:11:41.523Z,19.73
2018-12-20T02:14:10.773Z,22.00
2018-12-20T02:16:39.915Z,20.03
2018-12-20T02:19:08.838Z,20.27
2018-12-20T02:21:38.044Z,21.40
2018-12-20T02:24:07.139Z,21.57
2018-12-20T02:26:36.093Z,19.87
2018-12-20T02:29:06.222Z,20.27
2018-12-20T02:31:35.422Z,20.23
2018-12-20T02:34:04.665Z,20.73
2018-12-20T02:36:33.793Z,20.77
2018-12-20T02:39:02.867Z,21.43
2018-12-20T02:41:32.442Z,21.13
2018-12-20T02:44:01.406Z,19.87
2018-12-20T02:46:30.869Z,18.80
2018-12-20T02:49:00.182Z,19.90
2018-12-20T02:51:29.580Z,21.07
2018-12-20T02:53:58.948Z,21.13
2018-12-20T02:56:28.009Z,22.70
2018-12-20T02:58:57.318Z,21.57
2018-12-20T03:01:26.293Z,20.70
2018-12-20T03:03:55.342Z,20.03
2018-12-20T03:06:24.521Z,19.43
2018-12-20T03:08:53.816Z,18.97
2018-12-20T03:11:23.079Z,20.67
2018-12-20T03:13:52.170Z,20.07
2018-12-20T03:16:21.594Z,21.20
2018-12-20T03:18:50.794Z,20.33
2018-12-20T03:21:19.825Z,20.53
2018-12-20T03:23:48.972Z,21.23
2018-12-20T03:26:17.987Z,22.20
2018-12-20T03:28:47.273Z,21.57
2018-12-20T03:31:17.060Z,22.60
2018-12-20T03:33:46.560Z,21.27
2018-12-20T03:36:15.592Z,20.50
2018-12-20T03:38:44.702Z,20.17
2018-12-20T03:41:13.879Z,20.50
2018-12-20T03:43:42.794Z,19.77
2018-12-20T03:46:11.921Z,19.90
2018-12-20T03:48:41.042Z,21.90
2018-12-20T03:51:10.255Z,17.57
2018-12-20T03:53:39.357Z,20.50
2018-12-20T03:56:08.558Z,20.57
2018-12-20T03:58:38.109Z,17.70
2018-12-20T04:01:07.047Z,17.27
2018-12-20T04:03:36.210Z,20.00
2018-12-20T04:06:05.639Z,18.93
2018-12-20T04:08:34.762Z,19.93
2018-12-20T04:11:03.605Z,18.97
2018-12-20T04:13:32.572Z,18.20
2018-12-20T04:16:01.729Z,18.23
2018-12-20T04:18:30.952Z,19.27
2018-12-20T04:21:00.109Z,19.77
2018-12-20T04:23:29.308Z,18.37
2018-12-20T04:25:58.491Z,18.90
2018-12-20T04:28:27.840Z,18.20
2018-12-20T04:30:56.995Z,19.70
2018-12-20T04:33:26.170Z,20.87
2018-12-20T04:35:55.980Z,18.07
2018-12-20T04:38:24.890Z,18.60
2018-12-20T04:40:54.241Z,18.27
2018-12-20T04:43:23.083Z,19.90
2018-12-20T04:45:52.071Z,20.50
2018-12-20T04:48:22.715Z,20.90
2018-12-20T04:50:51.838Z,19.70
2018-12-20T04:53:21.439Z,27.43
2018-12-20T04:55:51.596Z,22.97
2018-12-20T04:58:20.897Z,21.43
2018-12-20T05:00:50.049Z,22.27
2018-12-20T05:03:19.207Z,28.60
2018-12-20T05:05:48.316Z,26.87
2018-12-20T05:08:17.481Z,27.13
2018-12-20T05:10:46.720Z,24.50
2018-12-20T05:13:16.008Z,25.30
2018-12-20T05:15:45.229Z,24.20
2018-12-20T05:18:14.208Z,21.53
2018-12-20T05:20:43.496Z,22.90
2018-12-20T05:23:12.710Z,25.83
2018-12-20T05:25:41.844Z,23.30
2018-12-20T05:28:10.603Z,23.60
2018-12-20T05:30:39.334Z,24.77
2018-12-20T05:33:08.367Z,24.07
2018-12-20T05:35:37.216Z,31.13
2018-12-20T05:38:06.452Z,27.33
2018-12-20T05:40:35.610Z,26.17
2018-12-20T05:43:04.758Z,24.90
2018-12-20T05:45:34.236Z,25.83
2018-12-20T05:48:03.407Z,26.60
2018-12-20T05:50:32.196Z,27.13
2018-12-20T05:53:01.300Z,27.70
2018-12-20T05:55:30.117Z,25.43
2018-12-20T05:57:59.178Z,25.27
2018-12-20T06:00:28.096Z,25.33
2018-12-20T06:02:57.455Z,24.47
2018-12-20T06:05:26.476Z,24.20
2018-12-20T06:07:55.219Z,25.43
2018-12-20T06:10:24.495Z,26.70
2018-12-20T06:12:53.651Z,26.47
2018-12-20T06:15:22.746Z,24.77
2018-12-20T06:17:52.264Z,24.47
2018-12-20T06:20:21.280Z,29.83
2018-12-20T06:22:50.439Z,34.03
2018-12-20T06:25:21.312Z,31.70
2018-12-20T06:27:50.268Z,35.70
2018-12-20T06:30:19.282Z,34.00
2018-12-20T06:32:47.975Z,35.30
2018-12-20T06:35:17.037Z,68.93
2018-12-20T06:37:45.777Z,63.47
2018-12-20T06:40:16.400Z,56.03
2018-12-20T06:42:45.685Z,57.57
2018-12-20T06:45:14.404Z,51.00
2018-12-20T06:47:43.446Z,34.77
2018-12-20T06:50:12.560Z,36.23
2018-12-20T06:52:41.341Z,31.77
2018-12-20T06:55:10.504Z,32.30
2018-12-20T06:57:39.714Z,30.30
2018-12-20T07:00:09.618Z,28.40
2018-12-20T07:02:38.853Z,27.80
2018-12-20T07:05:08.045Z,30.00
2018-12-20T07:07:37.938Z,27.77
2018-12-20T07:10:08.001Z,31.53
2018-12-20T07:12:37.048Z,31.47
2018-12-20T07:15:06.690Z,28.73
2018-12-20T07:17:35.600Z,30.03
2018-12-20T07:20:04.602Z,28.57
2018-12-20T07:22:33.840Z,32.00
2018-12-20T07:25:02.598Z,32.20
2018-12-20T07:27:31.707Z,36.47
2018-12-20T07:30:00.885Z,32.97
2018-12-20T07:32:30.442Z,33.60
2018-12-20T07:34:59.332Z,33.37
2018-12-20T07:37:28.325Z,30.63
2018-12-20T07:39:57.047Z,32.63
2018-12-20T07:42:25.797Z,30.93
2018-12-20T07:44:54.816Z,33.63
2018-12-20T07:47:24.667Z,35.37
2018-12-20T07:49:53.738Z,34.00
2018-12-20T07:52:22.797Z,36.03
2018-12-20T07:54:51.978Z,42.93
2018-12-20T07:57:21.093Z,35.13
2018-12-20T07:59:50.076Z,35.87
2018-12-20T08:02:19.198Z,34.50
2018-12-20T08:04:48.225Z,37.40
2018-12-20T08:07:17.517Z,39.07
2018-12-20T08:09:46.497Z,36.73
2018-12-20T08:12:15.887Z,34.77
2018-12-20T08:14:45.147Z,35.17
2018-12-20T08:17:14.139Z,35.50
2018-12-20T08:19:43.371Z,34.63
2018-12-20T08:22:12.571Z,34.43
2018-12-20T08:24:41.833Z,33.47
2018-12-20T08:27:11.362Z,34.27
2018-12-20T08:29:40.374Z,35.23
2018-12-20T08:32:09.821Z,34.43
2018-12-20T08:34:38.767Z,32.57
2018-12-20T08:37:07.866Z,35.73
2018-12-20T08:39:36.970Z,37.57
2018-12-20T08:42:06.171Z,35.87
2018-12-20T08:44:34.994Z,37.83
2018-12-20T08:47:04.342Z,39.50
2018-12-20T08:49:33.209Z,37.90
2018-12-20T08:52:01.862Z,37.03
2018-12-20T08:54:30.808Z,38.90
2018-12-20T08:56:59.716Z,37.33
2018-12-20T08:59:29.002Z,32.33
2018-12-20T09:01:58.097Z,33.80
2018-12-20T09:04:27.391Z,29.70
2018-12-20T09:06:56.156Z,30.67
2018-12-20T09:09:25.130Z,24.83
2018-12-20T09:11:54.249Z,21.77
2018-12-20T09:14:23.390Z,22.33
2018-12-20T09:16:52.461Z,24.00
2018-12-20T09:19:21.581Z,23.83
2018-12-20T09:21:50.667Z,26.77
2018-12-20T09:24:20.069Z,25.97
2018-12-20T09:26:50.091Z,29.07
2018-12-20T09:29:19.146Z,28.90
2018-12-20T09:31:48.085Z,27.53
2018-12-20T09:34:17.081Z,29.90
2018-12-20T09:36:45.820Z,32.87
2018-12-20T09:39:15.110Z,33.70
2018-12-20T09:41:43.833Z,36.57
2018-12-20T09:44:12.905Z,35.47
2018-12-20T09:46:42.101Z,34.73
2018-12-20T09:49:11.114Z,32.30
2018-12-20T09:51:40.320Z,34.63
2018-12-20T09:54:09.726Z,34.20
2018-12-20T09:56:38.745Z,33.80
2018-12-20T09:59:07.917Z,32.47
2018-12-20T10:01:36.710Z,30.67
2018-12-20T10:04:05.906Z,31.70
2018-12-20T10:06:35.013Z,30.83
2018-12-20T10:09:05.956Z,30.63
2018-12-20T10:11:34.988Z,28.60
2018-12-20T10:14:04.040Z,30.23
2018-12-20T10:16:32.747Z,27.43
2018-12-20T10:19:01.541Z,27.43
2018-12-20T10:21:30.709Z,26.30
2018-12-20T10:23:59.446Z,27.40
2018-12-20T10:26:28.191Z,26.80
2018-12-20T10:28:57.388Z,30.60
2018-12-20T10:31:26.319Z,28.87
2018-12-20T10:33:55.262Z,26.57
2018-12-20T10:36:24.351Z,29.30
2018-12-20T10:38:53.376Z,27.97
2018-12-20T10:41:22.642Z,29.17
2018-12-20T10:43:51.429Z,27.53
2018-12-20T10:46:20.643Z,27.10
2018-12-20T10:48:50.628Z,26.23
2018-12-20T10:51:19.650Z,25.23
2018-12-20T10:53:49.058Z,26.77
2018-12-20T10:56:18.127Z,28.03
2018-12-20T10:58:46.948Z,26.73
2018-12-20T11:01:21.156Z,24.07
2018-12-20T11:03:52.260Z,23.73
2018-12-20T11:06:26.196Z,24.10
2018-12-20T11:09:00.326Z,24.70
2018-12-20T11:11:33.748Z,24.87
2018-12-20T11:14:03.002Z,25.63
2018-12-20T11:16:38.477Z,25.80
2018-12-20T11:19:07.165Z,26.03
2018-12-20T11:21:36.241Z,24.83
2018-12-20T11:24:06.113Z,26.10
2018-12-20T11:26:34.919Z,25.90
2018-12-20T11:29:04.041Z,28.87
2018-12-20T11:31:33.259Z,28.30
2018-12-20T11:34:02.349Z,24.30
2018-12-20T11:36:31.324Z,25.67
2018-12-20T11:39:08.204Z,25.63
2018-12-20T11:41:30.794Z,25.10
2018-12-20T11:43:59.537Z,24.23
2018-12-20T11:46:28.852Z,22.43
2018-12-20T11:48:57.569Z,22.53
2018-12-20T11:51:26.582Z,24.00
2018-12-20T11:53:55.519Z,24.50
2018-12-20T11:56:24.521Z,26.27
2018-12-20T11:58:53.398Z,26.87
2018-12-20T12:01:22.263Z,28.37
2018-12-20T12:03:57.377Z,25.47
2018-12-20T12:06:22.525Z,26.40
2018-12-20T12:08:51.538Z,27.47
2018-12-20T12:11:20.428Z,27.97
2018-12-20T12:13:49.208Z,27.13
2018-12-20T12:16:18.428Z,29.30
2018-12-20T12:18:47.394Z,25.70
2018-12-20T12:21:16.489Z,25.43
2018-12-20T12:23:45.426Z,27.23
2018-12-20T12:26:14.583Z,25.57
2018-12-20T12:28:43.468Z,23.30
2018-12-20T12:31:12.474Z,25.83
2018-12-20T12:33:41.462Z,26.87
2018-12-20T12:36:10.267Z,26.87
2018-12-20T12:38:39.779Z,25.20
2018-12-20T12:41:08.946Z,24.73
2018-12-20T12:43:38.565Z,26.70
2018-12-20T12:46:07.324Z,27.77
2018-12-20T12:48:36.452Z,27.83
2018-12-20T12:51:05.445Z,25.47
2018-12-20T12:53:34.451Z,24.40
2018-12-20T12:56:03.640Z,21.63
2018-12-20T12:58:33.348Z,22.20
2018-12-20T13:01:02.406Z,24.20
2018-12-20T13:03:31.622Z,26.47
2018-12-20T13:06:00.672Z,23.37
2018-12-20T13:08:29.398Z,24.37
2018-12-20T13:10:58.515Z,24.63
2018-12-20T13:13:27.613Z,26.63
2018-12-20T13:15:56.614Z,23.70
2018-12-20T13:18:25.877Z,25.93
2018-12-20T13:20:54.558Z,25.77
2018-12-20T13:23:26.531Z,26.87
2018-12-20T13:25:55.542Z,22.40
2018-12-20T13:28:24.747Z,24.17
2018-12-20T13:30:53.834Z,26.27
2018-12-20T13:33:22.444Z,27.83
2018-12-20T13:35:51.738Z,28.10
2018-12-20T13:38:20.791Z,26.27
2018-12-20T13:40:50.066Z,24.57
2018-12-20T13:43:18.960Z,25.83
2018-12-20T13:45:47.997Z,31.27
2018-12-20T13:48:22.206Z,33.13
2018-12-20T13:50:48.561Z,28.43
2018-12-20T13:53:17.535Z,27.60
2018-12-20T13:55:46.638Z,26.60
2018-12-20T13:58:15.721Z,26.40
2018-12-20T14:00:45.651Z,29.43
2018-12-20T14:03:14.573Z,29.50
2018-12-20T14:05:44.054Z,29.97
2018-12-20T14:08:13.150Z,24.93
2018-12-20T14:10:42.233Z,24.30
2018-12-20T14:13:11.447Z,25.57
2018-12-20T14:15:40.430Z,23.47
2018-12-20T14:18:09.435Z,24.80
2018-12-20T14:20:38.516Z,22.03
2018-12-20T14:23:07.691Z,24.53
2018-12-20T14:25:40.150Z,24.33
2018-12-20T14:28:08.833Z,23.13
2018-12-20T14:30:38.121Z,21.87
2018-12-20T14:33:07.099Z,23.40
2018-12-20T14:35:36.345Z,24.70
2018-12-20T14:38:05.071Z,22.57
2018-12-20T14:40:34.167Z,24.77
2018-12-20T14:43:02.880Z,24.60
2018-12-20T14:45:31.932Z,24.97
2018-12-20T14:48:00.695Z,25.63
2018-12-20T14:50:30.205Z,26.50
2018-12-20T14:52:59.220Z,26.30
2018-12-20T14:55:28.427Z,25.50
2018-12-20T14:57:57.688Z,26.67
2018-12-20T15:00:26.609Z,26.07
2018-12-20T15:02:55.843Z,27.80
2018-12-20T15:05:25.149Z,27.27
2018-12-20T15:07:53.986Z,26.53
2018-12-20T15:10:23.094Z,27.63
2018-12-20T15:12:52.013Z,28.57
2018-12-20T15:15:21.034Z,27.50
2018-12-20T15:17:50.340Z,29.17
2018-12-20T15:20:19.381Z,27.23
2018-12-20T15:22:48.176Z,30.57
2018-12-20T15:25:17.141Z,32.20
2018-12-20T15:27:46.266Z,31.10
2018-12-20T15:30:15.580Z,29.90
2018-12-20T15:32:44.366Z,29.23
2018-12-20T15:35:13.342Z,31.03
2018-12-20T15:37:42.507Z,29.97
2018-12-20T15:40:11.347Z,27.70
2018-12-20T15:42:40.431Z,23.00
2018-12-20T15:45:10.046Z,23.53
2018-12-20T15:47:39.195Z,24.10
2018-12-20T15:50:09.776Z,24.70
2018-12-20T15:52:38.850Z,26.23
2018-12-20T15:55:08.268Z,23.00
2018-12-20T15:57:43.789Z,24.27
2018-12-20T16:00:12.798Z,26.93
2018-12-20T16:02:41.820Z,33.17
2018-12-20T16:05:10.991Z,34.43
2018-12-20T16:07:39.997Z,35.50
2018-12-20T16:10:10.308Z,34.33
2018-12-20T16:12:39.407Z,35.17
2018-12-20T16:15:09.073Z,40.23
2018-12-20T16:17:37.910Z,40.50
2018-12-20T16:20:08.255Z,35.90
2018-12-20T16:22:37.219Z,35.90
2018-12-20T16:25:07.326Z,37.73
2018-12-20T16:27:35.963Z,37.73
2018-12-20T16:30:05.787Z,34.13
2018-12-20T16:32:34.825Z,48.93
2018-12-20T16:35:03.875Z,65.53
2018-12-20T16:37:33.205Z,119.73
2018-12-20T16:40:02.721Z,84.23
2018-12-20T16:42:31.748Z,53.93
2018-12-20T16:45:00.395Z,43.63
2018-12-20T16:47:29.618Z,42.53
2018-12-20T16:49:58.518Z,43.60
2018-12-20T16:52:27.513Z,44.87
2018-12-20T16:54:56.328Z,51.03
2018-12-20T16:57:25.055Z,48.73
2018-12-20T16:59:54.080Z,49.70
2018-12-20T17:02:23.297Z,43.47
2018-12-20T17:04:52.603Z,36.13
2018-12-20T17:07:22.078Z,36.43
2018-12-20T17:09:50.842Z,34.37
2018-12-20T17:12:19.893Z,32.17
2018-12-20T17:14:49.090Z,30.00
2018-12-20T17:17:17.957Z,32.67
2018-12-20T17:19:47.030Z,32.57
2018-12-20T17:22:16.166Z,37.20
2018-12-20T17:24:45.255Z,32.73
2018-12-20T17:27:14.248Z,32.83
2018-12-20T17:29:43.241Z,31.83
2018-12-20T17:32:12.313Z,31.50
2018-12-20T17:34:41.082Z,31.80
2018-12-20T17:37:10.514Z,33.90
2018-12-20T17:39:39.686Z,32.50
2018-12-20T17:42:08.634Z,30.33
2018-12-20T17:44:38.982Z,33.30
2018-12-20T17:47:07.649Z,32.00
2018-12-20T17:49:36.656Z,31.27
2018-12-20T17:52:05.458Z,36.03
2018-12-20T17:54:34.323Z,30.70
2018-12-20T17:57:03.485Z,30.77
2018-12-20T17:59:32.264Z,34.43
2018-12-20T18:02:01.312Z,34.17
2018-12-20T18:04:30.307Z,37.17
2018-12-20T18:06:59.300Z,35.37
2018-12-20T18:09:28.376Z,37.70
2018-12-20T18:11:57.226Z,37.40
2018-12-20T18:14:26.486Z,37.07
2018-12-20T18:16:55.306Z,35.83
2018-12-20T18:19:23.955Z,31.83
2018-12-20T18:21:53.060Z,35.93
2018-12-20T18:24:22.399Z,37.70
2018-12-20T18:26:51.647Z,35.27
2018-12-20T18:29:21.435Z,36.97
2018-12-20T18:31:50.703Z,37.80
2018-12-20T18:34:19.624Z,36.40
2018-12-20T18:36:48.429Z,34.50
2018-12-20T18:39:17.277Z,34.33
2018-12-20T18:41:46.381Z,33.90
2018-12-20T18:44:15.368Z,33.07
2018-12-20T18:46:44.143Z,34.00
2018-12-20T18:49:13.186Z,33.13
2018-12-20T18:51:42.239Z,35.97
2018-12-20T18:54:11.595Z,35.43
2018-12-20T18:56:40.549Z,31.73
2018-12-20T18:59:09.352Z,32.87
2018-12-20T19:01:38.362Z,32.13
2018-12-20T19:04:07.559Z,34.13
2018-12-20T19:06:36.715Z,34.60
2018-12-20T19:09:07.377Z,32.47
2018-12-20T19:11:36.238Z,35.07
2018-12-20T19:14:05.695Z,33.63
2018-12-20T19:16:34.530Z,36.67
2018-12-20T19:19:03.764Z,35.27
2018-12-20T19:21:32.614Z,34.77
2018-12-20T19:24:01.759Z,35.07
2018-12-20T19:26:30.951Z,34.27
2018-12-20T19:29:00.113Z,37.20
2018-12-20T19:31:29.118Z,39.37
2018-12-20T19:33:58.046Z,35.23
2018-12-20T19:36:27.222Z,49.70
2018-12-20T19:38:56.453Z,32.93
2018-12-20T19:41:25.561Z,35.87
2018-12-20T19:43:54.543Z,35.77
2018-12-20T19:46:23.510Z,33.93
2018-12-20T19:48:52.460Z,32.57
2018-12-20T19:51:21.248Z,31.57
2018-12-20T19:53:50.004Z,33.07
2018-12-20T19:56:19.074Z,32.00
2018-12-20T19:58:48.092Z,29.43
2018-12-20T20:01:16.816Z,32.47
2018-12-20T20:03:45.807Z,32.63
2018-12-20T20:06:14.903Z,32.47
2018-12-20T20:08:44.112Z,32.17
2018-12-20T20:11:14.470Z,28.40
2018-12-20T20:13:43.612Z,25.03
2018-12-20T20:16:12.652Z,26.63
2018-12-20T20:18:42.581Z,26.60
2018-12-20T20:21:11.577Z,28.00
2018-12-20T20:23:40.336Z,25.90
2018-12-20T20:26:09.279Z,26.03
2018-12-20T20:28:38.352Z,24.43
2018-12-20T20:31:07.111Z,26.80
2018-12-20T20:33:35.925Z,24.53
2018-12-20T20:36:05.118Z,28.27
2018-12-20T20:38:33.883Z,27.20
2018-12-20T20:41:03.030Z,26.23
2018-12-20T20:43:32.037Z,28.30
2018-12-20T20:46:00.755Z,26.23
2018-12-20T20:48:30.565Z,26.87
2018-12-20T20:50:59.454Z,26.07
2018-12-20T20:53:28.626Z,28.07
2018-12-20T20:55:57.394Z,27.67
2018-12-20T20:58:26.410Z,25.33
2018-12-20T21:00:55.483Z,27.03
2018-12-20T21:03:24.458Z,27.03
2018-12-20T21:05:53.462Z,27.20
2018-12-20T21:08:22.444Z,28.73
2018-12-20T21:10:51.473Z,27.73
2018-12-20T21:13:20.775Z,29.47
2018-12-20T21:15:50.042Z,29.03
2018-12-20T21:18:19.128Z,32.73
2018-12-20T21:20:48.171Z,32.47
2018-12-20T21:23:16.917Z,28.57
2018-12-20T21:25:47.283Z,29.70
2018-12-20T21:28:16.275Z,29.03
2018-12-20T21:30:45.811Z,27.30
2018-12-20T21:33:14.842Z,28.40
2018-12-20T21:35:43.708Z,28.93
2018-12-20T21:38:12.697Z,30.47
2018-12-20T21:40:41.749Z,28.57
2018-12-20T21:43:10.527Z,29.27
2018-12-20T21:45:39.522Z,29.50
2018-12-20T21:48:08.391Z,28.90
2018-12-20T21:50:39.119Z,29.57
2018-12-20T21:53:08.715Z,32.60
2018-12-20T21:55:37.434Z,30.27
2018-12-20T21:58:06.510Z,30.83
2018-12-20T22:00:35.493Z,30.40
2018-12-20T22:03:04.524Z,29.17
2018-12-20T22:05:33.516Z,31.17
2018-12-20T22:08:02.514Z,33.27
2018-12-20T22:10:31.281Z,32.97
2018-12-20T22:13:00.115Z,30.80
2018-12-20T22:15:28.913Z,34.17
2018-12-20T22:17:58.327Z,35.00
2018-12-20T22:20:27.331Z,42.00
2018-12-20T22:22:56.079Z,30.10
2018-12-20T22:25:25.023Z,30.97
2018-12-20T22:27:53.882Z,32.73
2018-12-20T22:30:22.895Z,30.57
2018-12-20T22:32:51.882Z,28.90
2018-12-20T22:35:20.659Z,27.73
2018-12-20T22:37:49.453Z,29.83
2018-12-20T22:40:18.515Z,32.37
2018-12-20T22:42:47.566Z,33.23
2018-12-20T22:45:16.342Z,32.37
2018-12-20T22:47:45.174Z,31.00
2018-12-20T22:50:13.949Z,29.53
2018-12-20T22:52:42.883Z,32.10
2018-12-20T22:55:11.571Z,29.93
2018-12-20T22:57:40.589Z,29.43
2018-12-20T23:00:12.299Z,29.60
2018-12-20T23:02:41.381Z,30.57
2018-12-20T23:05:10.109Z,30.93
2018-12-20T23:07:39.087Z,28.70
2018-12-20T23:10:08.570Z,28.70
2018-12-20T23:12:37.903Z,29.73
2018-12-20T23:15:07.090Z,29.73
2018-12-20T23:17:35.885Z,30.77
2018-12-20T23:20:05.897Z,28.93
2018-12-20T23:22:34.954Z,29.77
2018-12-20T23:25:04.098Z,31.37
2018-12-20T23:27:32.975Z,31.00
2018-12-20T23:30:02.042Z,27.67
2018-12-20T23:32:31.037Z,29.67
2018-12-20T23:34:59.860Z,29.60
2018-12-20T23:37:28.841Z,28.97
2018-12-20T23:39:58.143Z,29.47
2018-12-20T23:42:27.114Z,31.50
2018-12-20T23:44:56.571Z,30.30
2018-12-20T23:47:25.517Z,27.37
2018-12-20T23:49:54.430Z,28.57
2018-12-20T23:52:23.467Z,25.20
2018-12-20T23:54:52.323Z,28.13
2018-12-20T23:57:21.368Z,30.50
2018-12-20T23:59:50.563Z,28.17
